createdAt,value
2018-11-29T00:02:13.580Z,14.43
2018-11-29T00:07:08.267Z,18.30
2018-11-29T00:12:02.993Z,18.90
2018-11-29T00:16:57.686Z,16.80
2018-11-29T00:21:52.403Z,17.73
2018-11-29T00:26:47.196Z,15.47
2018-11-29T00:31:41.860Z,16.60
2018-11-29T00:36:36.552Z,18.00
2018-11-29T00:41:31.177Z,16.90
2018-11-29T00:46:25.884Z,16.67
2018-11-29T00:51:20.565Z,15.40
2018-11-29T00:56:15.233Z,15.77
2018-11-29T01:01:10.508Z,18.67
2018-11-29T01:06:05.602Z,15.47
2018-11-29T01:11:00.307Z,17.20
2018-11-29T01:15:54.952Z,15.03
2018-11-29T01:20:55.984Z,14.73
2018-11-29T01:25:50.695Z,17.07
2018-11-29T01:30:45.964Z,15.23
2018-11-29T01:35:40.639Z,16.47
2018-11-29T01:40:35.408Z,16.77
2018-11-29T01:45:30.108Z,16.07
2018-11-29T01:50:24.829Z,17.17
2018-11-29T01:55:19.534Z,16.77
2018-11-29T02:00:16.428Z,17.77
2018-11-29T02:05:12.163Z,15.67
2018-11-29T02:10:14.354Z,17.37
2018-11-29T02:15:09.414Z,14.23
2018-11-29T02:20:05.164Z,16.40
2018-11-29T02:24:59.804Z,17.60
2018-11-29T02:29:54.602Z,15.27
2018-11-29T02:34:49.407Z,16.23
2018-11-29T02:39:44.054Z,17.43
2018-11-29T02:44:38.837Z,15.27
2018-11-29T02:49:33.556Z,18.43
2018-11-29T02:54:28.220Z,17.37
2018-11-29T02:59:22.918Z,15.23
2018-11-29T03:04:17.781Z,14.27
2018-11-29T03:09:12.481Z,16.20
2018-11-29T03:14:07.469Z,13.23
2018-11-29T03:19:02.174Z,14.50
2018-11-29T03:23:56.799Z,13.87
2018-11-29T03:28:51.490Z,15.53
2018-11-29T03:33:46.192Z,14.20
2018-11-29T03:38:40.852Z,14.20
2018-11-29T03:43:35.502Z,13.97
2018-11-29T03:48:30.162Z,15.47
2018-11-29T03:53:24.857Z,13.27
2018-11-29T03:58:19.536Z,14.57
2018-11-29T04:03:14.226Z,15.10
2018-11-29T04:08:08.909Z,17.13
2018-11-29T04:13:03.614Z,14.03
2018-11-29T04:17:58.280Z,16.07
2018-11-29T04:22:52.907Z,15.53
2018-11-29T04:27:47.584Z,15.07
2018-11-29T04:32:42.279Z,17.37
2018-11-29T04:37:36.971Z,15.07
2018-11-29T04:42:31.843Z,15.97
2018-11-29T04:47:26.514Z,15.93
2018-11-29T04:52:21.195Z,16.37
2018-11-29T04:57:15.840Z,17.17
2018-11-29T05:02:11.869Z,21.23
2018-11-29T05:07:05.238Z,18.37
2018-11-29T05:11:59.915Z,17.90
2018-11-29T05:16:54.835Z,16.17
2018-11-29T05:21:49.517Z,17.50
2018-11-29T05:26:44.229Z,19.60
2018-11-29T05:31:38.906Z,17.63
2018-11-29T05:36:33.538Z,17.70
2018-11-29T05:41:28.266Z,17.30
2018-11-29T05:46:23.091Z,17.57
2018-11-29T05:51:17.779Z,16.77
2018-11-29T05:56:12.468Z,16.77
2018-11-29T06:01:16.065Z,19.17
2018-11-29T06:06:11.303Z,16.00
2018-11-29T06:11:06.053Z,17.53
2018-11-29T06:16:00.787Z,17.50
2018-11-29T06:20:55.455Z,17.80
2018-11-29T06:25:50.633Z,17.70
2018-11-29T06:30:45.282Z,15.00
2018-11-29T06:35:41.505Z,20.27
2018-11-29T06:40:37.417Z,18.53
2018-11-29T06:45:32.113Z,18.70
2018-11-29T06:50:26.795Z,17.80
2018-11-29T06:55:24.039Z,17.90
2018-11-29T07:00:25.628Z,15.90
2018-11-29T07:05:20.267Z,14.40
2018-11-29T07:10:14.935Z,16.83
2018-11-29T07:15:12.744Z,18.23
2018-11-29T07:20:14.707Z,17.87
2018-11-29T07:25:10.415Z,19.40
2018-11-29T07:30:09.326Z,18.27
2018-11-29T07:35:04.167Z,18.83
2018-11-29T07:39:58.949Z,20.63
2018-11-29T07:44:53.607Z,24.47
2018-11-29T07:49:48.333Z,20.00
2018-11-29T07:54:43.018Z,18.13
2018-11-29T07:59:37.688Z,19.70
2018-11-29T08:04:32.424Z,18.27
2018-11-29T08:09:27.132Z,18.20
2018-11-29T08:14:21.849Z,18.80
2018-11-29T08:19:16.537Z,19.67
2018-11-29T08:24:11.237Z,18.67
2018-11-29T08:29:06.096Z,17.60
2018-11-29T08:34:00.806Z,18.73
2018-11-29T08:38:55.701Z,21.10
2018-11-29T08:43:52.716Z,19.77
2018-11-29T08:48:47.390Z,20.77
2018-11-29T08:53:42.082Z,21.50
2018-11-29T08:58:37.405Z,20.37
2018-11-29T09:03:32.108Z,19.47
2018-11-29T09:08:26.780Z,20.60
2018-11-29T09:13:21.452Z,18.83
2018-11-29T09:18:16.107Z,20.33
2018-11-29T09:23:10.876Z,19.77
2018-11-29T09:28:07.016Z,22.07
2018-11-29T09:33:01.940Z,20.27
2018-11-29T09:37:59.666Z,20.33
2018-11-29T09:42:54.689Z,17.90
2018-11-29T09:47:52.280Z,17.00
2018-11-29T09:52:47.273Z,16.83
2018-11-29T09:57:42.443Z,17.17
2018-11-29T10:02:37.584Z,18.40
2018-11-29T10:07:34.740Z,17.57
2018-11-29T10:12:31.882Z,17.43
2018-11-29T10:17:26.744Z,18.73
2018-11-29T10:22:21.648Z,18.77
2018-11-29T10:27:16.496Z,19.83
2018-11-29T10:32:11.408Z,19.93
2018-11-29T10:37:06.402Z,22.00
2018-11-29T10:42:02.748Z,18.30
2018-11-29T10:46:57.744Z,18.97
2018-11-29T10:51:53.151Z,19.83
2018-11-29T10:56:48.144Z,20.97
2018-11-29T11:01:44.940Z,18.60
2018-11-29T11:06:39.899Z,23.23
2018-11-29T11:11:34.909Z,19.60
2018-11-29T11:16:29.791Z,17.40
2018-11-29T11:21:24.773Z,22.47
2018-11-29T11:26:19.784Z,19.77
2018-11-29T11:31:14.648Z,17.63
2018-11-29T11:36:09.677Z,21.37
2018-11-29T11:41:04.682Z,20.03
2018-11-29T11:45:59.575Z,20.83
2018-11-29T11:50:56.891Z,20.73
2018-11-29T11:55:53.915Z,18.50
2018-11-29T12:00:48.377Z,19.60
2018-11-29T12:05:44.673Z,17.73
2018-11-29T12:10:41.474Z,18.53
2018-11-29T12:15:37.329Z,17.33
2018-11-29T12:20:32.422Z,19.27
2018-11-29T12:25:27.374Z,17.93
2018-11-29T12:30:30.484Z,18.77
2018-11-29T12:35:27.294Z,16.23
2018-11-29T12:40:23.587Z,17.33
2018-11-29T12:45:20.457Z,18.03
2018-11-29T12:50:21.094Z,19.67
2018-11-29T12:55:18.328Z,19.17
2018-11-29T13:00:17.828Z,18.93
2018-11-29T13:05:13.101Z,19.17
2018-11-29T13:10:08.758Z,20.97
2018-11-29T13:15:03.710Z,19.30
2018-11-29T13:19:58.576Z,18.27
2018-11-29T13:24:53.772Z,17.53
2018-11-29T13:29:48.739Z,17.27
2018-11-29T13:34:43.749Z,23.10
2018-11-29T13:39:39.161Z,19.63
2018-11-29T13:44:33.997Z,18.47
2018-11-29T13:49:28.908Z,19.80
2018-11-29T13:54:23.900Z,19.37
2018-11-29T13:59:18.957Z,17.33
2018-11-29T14:04:13.864Z,18.10
2018-11-29T14:09:10.623Z,18.30
2018-11-29T14:14:07.944Z,21.63
2018-11-29T14:19:01.121Z,21.27
2018-11-29T14:23:55.971Z,19.07
2018-11-29T14:28:50.825Z,20.77
2018-11-29T14:33:45.652Z,23.53
2018-11-29T14:38:40.516Z,25.80
2018-11-29T14:43:35.394Z,22.30
2018-11-29T14:48:30.249Z,18.50
2018-11-29T14:53:25.113Z,21.50
2018-11-29T14:58:20.112Z,23.43
2018-11-29T15:03:18.316Z,23.10
2018-11-29T15:08:13.226Z,21.67
2018-11-29T15:13:10.696Z,21.13
2018-11-29T15:18:05.728Z,20.67
2018-11-29T15:23:00.672Z,21.37
2018-11-29T15:33:04.938Z,21.63
2018-11-29T15:37:59.879Z,23.33
2018-11-29T15:42:55.523Z,20.23
2018-11-29T15:47:50.956Z,21.50
2018-11-29T15:52:46.912Z,25.17
2018-11-29T15:57:42.609Z,22.47
2018-11-29T16:02:38.782Z,25.80
2018-11-29T16:07:34.950Z,20.40
2018-11-29T16:12:30.699Z,18.97
2018-11-29T16:17:26.594Z,18.50
2018-11-29T16:22:22.700Z,20.53
2018-11-29T16:27:18.706Z,20.93
2018-11-29T16:32:14.809Z,20.80
2018-11-29T16:37:10.663Z,22.00
2018-11-29T16:42:05.981Z,17.23
2018-11-29T16:47:01.947Z,21.03
2018-11-29T16:51:56.864Z,22.53
2018-11-29T16:56:51.706Z,18.10
2018-11-29T17:01:46.707Z,20.60
2018-11-29T17:06:41.797Z,24.27
2018-11-29T17:11:37.011Z,24.17
2018-11-29T17:16:31.898Z,19.67
2018-11-29T17:21:26.731Z,23.07
2018-11-29T17:26:21.737Z,19.53
2018-11-29T17:31:16.666Z,21.97
2018-11-29T17:36:11.667Z,21.23
2018-11-29T17:41:08.228Z,19.13
2018-11-29T17:46:03.202Z,21.17
2018-11-29T17:50:58.145Z,21.47
2018-11-29T17:55:53.224Z,19.13
2018-11-29T18:00:50.569Z,20.23
2018-11-29T18:05:46.153Z,18.87
2018-11-29T18:10:42.075Z,19.20
2018-11-29T18:15:37.376Z,19.37
2018-11-29T18:20:32.338Z,19.67
2018-11-29T18:25:27.669Z,20.67
2018-11-29T18:30:23.598Z,19.43
2018-11-29T18:35:18.683Z,19.97
2018-11-29T18:40:19.490Z,20.77
2018-11-29T18:45:18.193Z,25.27
2018-11-29T18:50:24.138Z,20.97
2018-11-29T18:55:20.495Z,21.62
2018-11-29T19:00:33.971Z,20.67
2018-11-29T19:06:19.012Z,19.27
2018-11-29T19:11:14.959Z,19.67
2018-11-29T19:22:35.550Z,23.13
2018-11-29T19:27:30.715Z,22.30
2018-11-29T19:48:04.602Z,17.80
2018-11-29T19:53:00.635Z,20.17
2018-11-29T19:57:55.867Z,19.77
2018-11-29T20:02:52.863Z,20.23
2018-11-29T20:07:47.779Z,19.03
2018-11-29T20:12:43.070Z,19.90
2018-11-29T20:17:38.037Z,20.80
2018-11-29T20:22:32.943Z,20.03
2018-11-29T20:27:27.741Z,20.43
2018-11-29T20:32:22.696Z,15.87
2018-11-29T20:37:17.699Z,17.17
2018-11-29T20:42:12.678Z,17.33
2018-11-29T20:47:08.000Z,19.17
2018-11-29T20:52:02.802Z,20.83
2018-11-29T20:56:57.676Z,24.47
2018-11-29T21:01:52.697Z,25.33
2018-11-29T21:08:00.331Z,28.30
2018-11-29T21:12:59.826Z,40.13
2018-11-29T21:24:48.192Z,22.10
2018-11-29T21:29:43.173Z,22.33
2018-11-29T21:34:38.106Z,19.53
2018-11-29T21:39:33.174Z,17.90
2018-11-29T21:44:28.079Z,18.17
2018-11-29T21:49:23.042Z,18.03
2018-11-29T21:54:17.924Z,19.40
2018-11-29T21:59:12.736Z,19.37
2018-11-29T22:04:07.719Z,20.57
2018-11-29T22:09:02.790Z,18.63
2018-11-29T22:13:57.749Z,18.57
2018-11-29T22:18:52.648Z,18.73
2018-11-29T22:23:49.006Z,17.53
2018-11-29T22:28:44.625Z,19.27
2018-11-29T22:33:40.275Z,23.17
2018-11-29T22:38:35.714Z,16.97
2018-11-29T22:43:36.277Z,17.80
2018-11-29T22:48:39.459Z,16.37
2018-11-29T22:53:34.714Z,16.33
2018-11-29T22:58:39.016Z,17.10
2018-11-29T23:03:35.856Z,17.07
2018-11-29T23:08:32.567Z,16.87
2018-11-29T23:13:35.697Z,17.77
2018-11-29T23:18:31.646Z,19.80
2018-11-29T23:24:54.343Z,18.60
2018-11-29T23:34:54.313Z,17.47
2018-11-29T23:39:57.280Z,16.67
2018-11-29T23:44:52.312Z,20.53
2018-11-29T23:49:47.119Z,17.73
2018-11-29T23:54:41.947Z,16.37
2018-11-29T23:59:37.040Z,17.83
